Time;durP1;ratioP1;P1;durP2;ratioP2;P2;SDS_P1;SDS_P2;PMS_P1;PMS_P2;Temp;Humidity;BMP_temperature;BMP_pressure;BME280_temperature;BME280_humidity;BME280_pressure;Samples;Min_cycle;Max_cycle;Signal;HPM_P1;HPM_P2
2021/11/06 00:01:02;;;;;;;21.33;9.35;;;;;;;32.55;18.40;94928.28;5054007;28;20051;-56
2021/11/06 00:03:29;;;;;;;18.30;9.50;;;;;;;32.65;18.25;94931.94;5054458;28;20051;-52
2021/11/06 00:05:56;;;;;;;18.13;8.60;;;;;;;32.60;18.51;94932.44;5054259;28;20048;-56
2021/11/06 00:08:23;;;;;;;19.42;9.82;;;;;;;32.51;18.41;94936.44;5053952;28;20037;-56
2021/11/06 00:10:51;;;;;;;16.77;9.15;;;;;;;32.31;19.12;94930.22;5053928;28;20055;-53
2021/11/06 00:13:19;;;;;;;16.73;9.02;;;;;;;32.58;18.45;94929.38;5052219;28;20056;-56
2021/11/06 00:15:46;;;;;;;21.13;9.13;;;;;;;32.24;19.16;94930.31;5053869;28;20356;-54
2021/11/06 00:18:13;;;;;;;17.48;9.02;;;;;;;32.44;18.42;94931.16;5054056;28;20060;-60
2021/11/06 00:20:40;;;;;;;15.73;9.23;;;;;;;32.34;18.56;94936.75;5053820;28;20063;-56
2021/11/06 00:23:07;;;;;;;16.15;9.95;;;;;;;32.34;18.56;94936.75;5053167;28;20045;-56
2021/11/06 00:25:34;;;;;;;16.92;9.73;;;;;;;32.26;18.96;94946.13;5053963;28;20052;-54
2021/11/06 00:28:02;;;;;;;17.10;9.77;;;;;;;32.37;18.69;94947.50;5053821;28;20036;-56
2021/11/06 00:30:29;;;;;;;19.27;10.18;;;;;;;32.11;19.19;94951.75;5049554;28;20046;-56
2021/11/06 00:32:56;;;;;;;22.92;12.77;;;;;;;32.54;18.41;94961.16;5046525;28;20053;-56
2021/11/06 00:35:24;;;;;;;21.20;13.13;;;;;;;32.39;18.47;94958.69;5053082;28;20056;-53
2021/11/06 00:37:52;;;;;;;23.67;13.10;;;;;;;32.60;18.37;94970.31;5053131;28;20471;-53
2021/11/06 00:40:19;;;;;;;19.85;13.15;;;;;;;32.17;18.79;94966.34;5053965;28;20049;-58
2021/11/06 00:42:46;;;;;;;26.48;13.85;;;;;;;32.40;18.56;94962.91;5053452;28;20048;-61
2021/11/06 00:45:14;;;;;;;22.17;12.90;;;;;;;32.28;18.90;94960.81;5052864;28;20051;-56
2021/11/06 00:47:42;;;;;;;18.17;11.60;;;;;;;32.19;19.03;94955.88;5052779;28;20037;-56
2021/11/06 00:50:12;;;;;;;21.58;11.80;;;;;;;32.32;18.66;94961.50;5053371;28;20048;-59
2021/11/06 00:52:39;;;;;;;25.75;11.55;;;;;;;32.54;18.34;94966.56;5053043;28;20057;-56
2021/11/06 00:55:07;;;;;;;19.77;11.32;;;;;;;32.42;18.41;94959.78;5053599;28;20375;-56
2021/11/06 00:57:34;;;;;;;24.98;10.95;;;;;;;32.33;18.64;94956.88;5055099;28;20056;-55
2021/11/06 01:00:02;;;;;;;20.35;10.45;;;;;;;32.61;18.57;94966.44;5057280;28;20052;-53
2021/11/06 01:02:29;;;;;;;21.95;10.88;;;;;;;32.41;18.80;94956.31;5057130;28;20057;-56
2021/11/06 01:04:56;;;;;;;18.13;9.60;;;;;;;32.45;18.28;94956.25;5057581;28;20344;-55
2021/11/06 01:07:23;;;;;;;19.08;10.60;;;;;;;32.76;18.02;94965.00;5057011;28;20044;-55
2021/11/06 01:09:51;;;;;;;20.00;10.10;;;;;;;32.52;18.63;94969.66;5057082;28;20040;-57
2021/11/06 01:12:18;;;;;;;19.85;10.25;;;;;;;32.14;18.61;94961.00;5056985;28;20045;-54
2021/11/06 01:14:45;;;;;;;17.42;8.88;;;;;;;32.35;18.70;94970.75;5057215;28;20056;-57
2021/11/06 01:17:12;;;;;;;16.05;8.25;;;;;;;32.44;18.67;94973.66;5057174;28;20124;-55
2021/11/06 01:19:39;;;;;;;14.82;8.77;;;;;;;32.47;18.61;94973.59;5056859;28;20053;-59
2021/11/06 01:22:06;;;;;;;17.42;9.05;;;;;;;32.35;18.41;94971.50;5056695;28;20459;-56
2021/11/06 01:24:33;;;;;;;15.25;8.30;;;;;;;32.35;18.58;94982.31;5056049;28;20051;-55
2021/11/06 01:27:00;;;;;;;13.70;8.40;;;;;;;32.20;18.73;94980.97;5056776;28;20357;-54
2021/11/06 01:29:27;;;;;;;14.55;9.15;;;;;;;32.06;19.07;94986.63;5056725;28;20071;-56
2021/11/06 01:31:55;;;;;;;18.00;9.82;;;;;;;31.88;19.35;94981.47;5056755;28;20044;-56
2021/11/06 01:34:22;;;;;;;17.17;8.65;;;;;;;32.11;18.88;94980.75;5056224;28;20056;-53
2021/11/06 01:36:49;;;;;;;19.05;9.25;;;;;;;31.98;19.33;94987.88;5055870;28;20061;-56
2021/11/06 01:39:16;;;;;;;18.15;8.93;;;;;;;31.87;19.38;94985.34;5056523;28;20053;-56
2021/11/06 01:41:43;;;;;;;17.90;8.35;;;;;;;32.11;18.73;94992.31;5055482;28;20052;-53
2021/11/06 01:44:13;;;;;;;16.70;8.70;;;;;;;31.85;19.09;95001.97;5056754;28;20482;-52
2021/11/06 01:46:40;;;;;;;17.92;8.60;;;;;;;31.84;18.99;95000.44;5056904;28;20060;-55
2021/11/06 01:49:07;;;;;;;15.80;8.25;;;;;;;31.86;19.35;94987.28;5056325;28;20053;-54
2021/11/06 01:51:34;;;;;;;18.65;8.52;;;;;;;31.79;19.29;94990.09;5056705;28;20045;-51
2021/11/06 01:54:01;;;;;;;17.13;7.70;;;;;;;31.82;19.26;94999.31;5056752;28;20486;-55
2021/11/06 01:56:29;;;;;;;19.42;8.77;;;;;;;31.64;19.08;94988.72;5056633;28;20059;-54
2021/11/06 01:58:56;;;;;;;16.65;8.25;;;;;;;31.35;19.82;94998.34;5040225;28;20049;-55
2021/11/06 02:01:23;;;;;;;18.08;8.48;;;;;;;31.52;19.64;94986.56;5054931;28;20049;-56
2021/11/06 02:03:50;;;;;;;17.35;7.30;;;;;;;31.45;19.82;94987.41;5056309;28;20056;-55
2021/11/06 02:06:18;;;;;;;14.77;7.97;;;;;;;31.27;19.97;94997.69;5056141;28;20055;-55
2021/11/06 02:08:45;;;;;;;14.63;8.30;;;;;;;31.69;19.54;94992.91;5055610;28;20087;-53
2021/11/06 02:11:12;;;;;;;15.95;7.55;;;;;;;31.54;19.69;94989.63;5054912;28;20045;-55
2021/11/06 02:13:42;;;;;;;16.77;7.65;;;;;;;31.83;19.06;94996.22;5056079;28;20052;-53
2021/11/06 02:16:11;;;;;;;16.23;7.97;;;;;;;31.62;19.68;95006.50;5056527;28;20063;-52
2021/11/06 02:18:41;;;;;;;19.75;8.13;;;;;;;31.73;19.22;94997.09;5056333;28;20154;-53
2021/11/06 02:21:09;;;;;;;16.23;7.78;;;;;;;31.54;19.39;95000.44;5056566;28;20053;-57
2021/11/06 02:23:42;;;;;;;16.52;8.40;;;;;;;31.52;19.47;95002.78;5056061;28;20045;-55
2021/11/06 02:26:11;;;;;;;17.23;8.10;;;;;;;31.32;19.67;95012.66;5055902;28;20055;-54
2021/11/06 02:28:39;;;;;;;20.98;7.80;;;;;;;31.43;19.78;95005.19;5056437;28;20040;-52
2021/11/06 02:31:06;;;;;;;15.63;8.40;;;;;;;31.33;20.02;95016.91;5055365;28;20052;-52
2021/11/06 02:33:33;;;;;;;20.73;8.35;;;;;;;31.56;19.46;95020.47;5056749;28;20049;-54
2021/11/06 02:36:01;;;;;;;21.98;8.27;;;;;;;31.48;19.89;95035.22;5055307;28;20057;-53
2021/11/06 02:38:28;;;;;;;18.60;8.02;;;;;;;31.71;19.41;95037.28;5055457;28;20041;-58
2021/11/06 02:40:57;;;;;;;15.82;7.78;;;;;;;31.69;19.42;95036.13;5055325;28;20049;-53
2021/11/06 02:43:24;;;;;;;20.95;8.15;;;;;;;31.63;19.53;95035.06;5055189;28;20049;-56
2021/11/06 02:45:51;;;;;;;16.17;7.95;;;;;;;31.54;19.29;95043.66;5055993;28;20053;-56
2021/11/06 02:48:18;;;;;;;14.93;7.88;;;;;;;31.34;19.64;95034.63;5055831;28;20048;-56
2021/11/06 02:50:46;;;;;;;20.90;8.45;;;;;;;31.23;19.87;95046.34;5055730;28;20455;-58
2021/11/06 02:53:13;;;;;;;20.55;9.13;;;;;;;31.34;19.81;95037.34;5054670;28;20052;-55
2021/11/06 02:55:40;;;;;;;21.23;10.13;;;;;;;31.44;19.65;95039.13;5055814;28;20657;-52
2021/11/06 02:58:10;;;;;;;15.95;9.32;;;;;;;31.52;19.63;95040.59;5055325;28;20045;-51
2021/11/06 03:00:38;;;;;;;19.02;9.35;;;;;;;31.21;20.03;95043.25;5055350;28;20049;-53
2021/11/06 03:03:05;;;;;;;21.10;9.68;;;;;;;31.56;19.65;95041.31;5054497;28;20470;-53
2021/11/06 03:05:32;;;;;;;19.88;9.75;;;;;;;31.05;20.16;95034.91;5054659;28;20371;-53
2021/11/06 03:07:59;;;;;;;27.88;13.10;;;;;;;31.53;19.78;95025.94;5055089;28;20041;-52
2021/11/06 03:10:30;;;;;;;19.90;13.27;;;;;;;31.59;19.28;95043.22;5055080;28;20052;-53
2021/11/06 03:12:57;;;;;;;22.30;12.15;;;;;;;31.31;19.99;95051.66;5054236;28;20053;-51
2021/11/06 03:15:24;;;;;;;21.38;12.23;;;;;;;31.39;19.52;95053.88;5054993;28;20044;-53
2021/11/06 03:17:51;;;;;;;22.30;11.82;;;;;;;31.15;19.84;95061.03;5054677;28;20056;-54
2021/11/06 03:20:19;;;;;;;19.85;12.02;;;;;;;31.14;19.87;95061.44;5054069;28;20045;-53
2021/11/06 03:22:46;;;;;;;19.08;10.50;;;;;;;31.20;19.83;95057.91;5054059;28;20044;-56
2021/11/06 03:25:14;;;;;;;19.33;10.25;;;;;;;31.11;19.99;95059.53;5055285;28;20474;-54
2021/11/06 03:27:41;;;;;;;18.35;10.18;;;;;;;30.90;20.29;95060.50;5055096;28;20047;-52
2021/11/06 03:30:09;;;;;;;18.92;11.88;;;;;;;31.12;20.04;95067.25;5054789;28;20056;-51
2021/11/06 03:32:37;;;;;;;21.45;11.60;;;;;;;31.16;19.86;95073.41;5053997;28;20083;-54
2021/11/06 03:35:06;;;;;;;18.25;10.38;;;;;;;31.44;19.74;95068.84;5054278;28;20064;-57
2021/11/06 03:37:33;;;;;;;17.88;10.57;;;;;;;31.51;19.74;95056.06;5043225;28;20056;-55
2021/11/06 03:40:01;;;;;;;23.15;10.38;;;;;;;31.42;19.54;95063.09;5054709;28;20056;-52
2021/11/06 03:42:28;;;;;;;20.50;10.05;;;;;;;31.38;19.37;95056.97;5054017;28;20652;-54
2021/11/06 03:44:55;;;;;;;17.08;10.40;;;;;;;31.34;19.60;95072.44;5054327;28;20841;-57
2021/11/06 03:47:22;;;;;;;14.25;8.38;;;;;;;31.39;19.66;95072.00;5054381;28;20360;-53
2021/11/06 03:49:49;;;;;;;18.02;9.25;;;;;;;31.37;19.71;95079.75;5054343;28;20392;-55
2021/11/06 03:52:17;;;;;;;14.10;8.63;;;;;;;31.34;19.79;95084.03;5053500;28;20059;-53
2021/11/06 03:54:44;;;;;;;20.38;9.43;;;;;;;31.21;19.93;95091.84;5054190;28;20460;-52
2021/11/06 03:57:11;;;;;;;19.23;9.15;;;;;;;31.11;19.91;95092.72;5054300;28;20058;-56
2021/11/06 03:59:38;;;;;;;19.58;9.00;;;;;;;31.40;19.92;95084.34;5053966;28;20056;-56
2021/11/06 04:02:05;;;;;;;15.98;8.95;;;;;;;31.06;20.21;95085.06;5053339;28;20040;-56
2021/11/06 04:04:33;;;;;;;19.92;9.93;;;;;;;30.98;20.28;95083.59;5054035;28;20049;-57
2021/11/06 04:07:00;;;;;;;23.30;9.98;;;;;;;30.98;20.00;95075.50;5053629;28;20056;-56
2021/11/06 04:09:27;;;;;;;16.80;10.02;;;;;;;31.09;20.04;95062.66;5054047;28;20048;-55
2021/11/06 04:11:54;;;;;;;17.40;9.75;;;;;;;31.23;19.64;95072.56;5053238;28;20044;-52
2021/11/06 04:14:21;;;;;;;16.70;7.88;;;;;;;31.38;19.46;95067.78;5053978;28;20049;-53
2021/11/06 04:16:48;;;;;;;17.83;8.60;;;;;;;31.11;19.93;95076.50;5053835;28;20047;-51
2021/11/06 04:19:15;;;;;;;18.92;8.48;;;;;;;31.09;19.85;95059.94;5053788;28;20052;-53
2021/11/06 04:21:43;;;;;;;18.23;9.18;;;;;;;30.88;20.12;95057.44;5050166;28;20052;-56
2021/11/06 04:24:10;;;;;;;15.45;7.78;;;;;;;30.94;20.31;95055.84;5034051;28;20049;-54
2021/11/06 04:26:38;;;;;;;22.92;9.43;;;;;;;31.05;20.05;95072.72;5033900;28;20045;-56
2021/11/06 04:29:05;;;;;;;18.33;8.45;;;;;;;31.00;20.00;95078.56;5033954;28;20452;-56
2021/11/06 04:31:32;;;;;;;14.00;8.45;;;;;;;31.06;19.99;95085.06;5035290;28;20480;-58
2021/11/06 04:34:02;;;;;;;18.30;9.55;;;;;;;30.90;20.17;95088.25;5053660;28;20044;-52
2021/11/06 04:36:29;;;;;;;19.40;9.30;;;;;;;31.38;19.36;95094.78;5054010;28;20049;-56
2021/11/06 04:38:56;;;;;;;15.60;9.10;;;;;;;31.17;19.83;95107.31;5053495;28;20371;-55
2021/11/06 04:41:23;;;;;;;17.90;7.85;;;;;;;30.98;19.88;95105.19;5053122;28;20045;-58
2021/11/06 04:43:53;;;;;;;16.15;8.80;;;;;;;31.05;20.02;95105.13;5053973;28;20045;-56
2021/11/06 04:46:20;;;;;;;18.77;8.77;;;;;;;31.10;19.94;95109.31;5053666;28;20041;-53
2021/11/06 04:48:48;;;;;;;18.77;9.32;;;;;;;31.22;19.81;95131.19;5053895;28;20045;-52
2021/11/06 04:51:16;;;;;;;17.40;8.70;;;;;;;30.78;20.39;95115.00;5053460;28;20049;-53
2021/11/06 04:53:43;;;;;;;20.65;8.52;;;;;;;30.81;20.50;95106.84;5053063;28;20053;-53
2021/11/06 04:56:10;;;;;;;12.07;8.85;;;;;;;31.15;20.07;95111.56;5053560;28;20049;-54
2021/11/06 04:58:37;;;;;;;20.85;9.15;;;;;;;30.79;20.45;95127.31;5053372;28;20049;-53
2021/11/06 05:01:07;;;;;;;18.42;9.13;;;;;;;30.92;20.28;95133.75;5053313;28;20053;-56
2021/11/06 05:03:34;;;;;;;18.92;8.80;;;;;;;30.75;20.49;95145.47;5053153;28;20052;-55
2021/11/06 05:06:01;;;;;;;17.75;8.35;;;;;;;30.79;20.31;95140.81;5053123;28;20052;-56
2021/11/06 05:08:28;;;;;;;14.27;8.32;;;;;;;30.80;20.44;95143.09;5052503;28;20045;-55
2021/11/06 05:10:55;;;;;;;18.02;8.95;;;;;;;30.59;20.63;95137.84;5053332;28;20045;-54
2021/11/06 05:13:23;;;;;;;19.35;9.30;;;;;;;30.83;20.18;95141.53;5052869;28;20059;-52
2021/11/06 05:15:50;;;;;;;21.85;8.43;;;;;;;30.87;20.25;95150.38;5053158;28;20044;-54
2021/11/06 05:18:19;;;;;;;19.52;8.60;;;;;;;30.50;20.77;95157.16;5053352;28;20040;-55
2021/11/06 05:20:46;;;;;;;14.90;7.63;;;;;;;30.78;20.41;95155.47;5053149;28;20048;-55
2021/11/06 05:23:16;;;;;;;15.57;7.60;;;;;;;30.85;20.26;95144.63;5053326;28;20044;-52
2021/11/06 05:25:46;;;;;;;13.20;7.43;;;;;;;30.35;20.71;95161.88;5053177;28;20048;-52
2021/11/06 05:28:14;;;;;;;13.80;7.70;;;;;;;30.93;20.06;95151.47;5053261;28;20049;-56
2021/11/06 05:30:43;;;;;;;17.23;7.35;;;;;;;30.84;20.47;95145.78;5053052;28;20041;-55
2021/11/06 05:33:11;;;;;;;19.30;8.00;;;;;;;31.08;19.95;95152.91;5052645;28;20056;-53
2021/11/06 05:35:39;;;;;;;22.05;8.48;;;;;;;31.07;20.02;95158.72;5052431;28;20642;-53
2021/11/06 05:38:06;;;;;;;17.67;8.20;;;;;;;31.13;20.11;95165.97;5052943;28;20379;-56
2021/11/06 05:40:33;;;;;;;17.25;8.45;;;;;;;31.03;20.12;95164.16;5053308;28;20503;-57
2021/11/06 05:43:00;;;;;;;16.25;8.23;;;;;;;31.26;19.59;95163.59;5053056;28;20048;-51
2021/11/06 05:45:30;;;;;;;21.67;8.52;;;;;;;31.29;19.94;95179.00;5057007;28;20490;-52
2021/11/06 05:47:57;;;;;;;20.55;7.85;;;;;;;31.23;19.83;95180.59;5055694;28;20052;-51
2021/11/06 05:50:24;;;;;;;16.92;8.27;;;;;;;31.16;20.35;95181.41;5056829;28;20056;-58
2021/11/06 05:52:51;;;;;;;22.95;9.90;;;;;;;30.98;20.39;95192.34;5055794;28;20056;-56
2021/11/06 05:55:19;;;;;;;17.10;8.85;;;;;;;31.15;20.07;95206.84;5056290;28;20049;-56
2021/11/06 05:57:46;;;;;;;21.27;8.65;;;;;;;31.16;20.32;95203.00;5056391;28;20057;-53
2021/11/06 06:00:18;;;;;;;14.32;7.90;;;;;;;31.40;20.71;95206.66;5056798;28;20051;-54
2021/11/06 06:02:46;;;;;;;19.05;8.30;;;;;;;31.23;20.63;95219.16;5056266;28;20128;-54
2021/11/06 06:05:14;;;;;;;17.67;8.57;;;;;;;31.16;21.00;95219.22;5056927;28;20049;-55
2021/11/06 06:07:42;;;;;;;18.50;7.80;;;;;;;31.27;21.75;95221.84;5056352;28;20056;-56
2021/11/06 06:10:11;;;;;;;14.90;7.95;;;;;;;31.54;21.06;95224.69;5039197;28;20057;-53
2021/11/06 06:12:38;;;;;;;16.92;8.15;;;;;;;31.33;21.06;95230.28;5044069;28;20045;-52
2021/11/06 06:15:06;;;;;;;20.00;9.18;;;;;;;31.33;21.28;95238.38;5056416;28;20467;-52
2021/11/06 06:17:37;;;;;;;18.45;8.50;;;;;;;31.62;20.57;95242.38;5056374;28;20079;-56
2021/11/06 06:20:06;;;;;;;19.65;8.73;;;;;;;31.37;20.95;95247.22;5056229;28;20360;-54
2021/11/06 06:22:34;;;;;;;15.60;8.55;;;;;;;31.73;20.47;95245.75;5055508;28;20262;-52
2021/11/06 06:25:02;;;;;;;17.20;7.97;;;;;;;31.67;20.44;95246.56;5055967;28;20080;-54
2021/11/06 06:27:29;;;;;;;18.92;8.63;;;;;;;31.60;20.91;95242.75;5055927;28;20041;-53
2021/11/06 06:29:56;;;;;;;15.18;8.35;;;;;;;31.51;21.07;95250.56;5055029;28;20056;-54
2021/11/06 06:32:23;;;;;;;15.60;8.40;;;;;;;31.60;21.30;95260.91;5055066;28;20048;-58
2021/11/06 06:34:50;;;;;;;21.45;8.45;;;;;;;31.67;20.82;95258.13;5055530;28;20040;-54
2021/11/06 06:37:17;;;;;;;16.20;8.70;;;;;;;31.72;20.72;95265.84;5055676;28;20048;-53
2021/11/06 06:39:45;;;;;;;15.93;8.68;;;;;;;31.62;20.92;95266.69;5055565;28;20052;-55
2021/11/06 06:42:12;;;;;;;16.75;8.63;;;;;;;31.64;20.91;95258.19;5055132;28;20083;-55
2021/11/06 06:44:39;;;;;;;16.38;8.38;;;;;;;31.87;20.37;95251.03;5055617;28;20049;-57
2021/11/06 06:47:06;;;;;;;17.05;8.07;;;;;;;31.80;20.52;95261.91;5055832;28;20056;-57
2021/11/06 06:49:33;;;;;;;18.00;8.70;;;;;;;31.96;20.94;95258.66;5055526;28;20044;-52
2021/11/06 06:52:00;;;;;;;14.82;7.68;;;;;;;31.94;20.54;95266.41;5054857;28;20052;-56
2021/11/06 06:54:27;;;;;;;16.15;8.05;;;;;;;32.01;20.03;95268.25;5055411;28;20079;-53
2021/11/06 06:56:54;;;;;;;21.33;8.18;;;;;;;32.05;19.89;95272.47;5055180;28;20052;-54
2021/11/06 06:59:21;;;;;;;17.23;7.78;;;;;;;31.80;20.71;95267.31;5055352;28;20447;-57
2021/11/06 07:01:49;;;;;;;15.55;7.38;;;;;;;31.65;20.14;95265.88;5054672;28;20053;-57
2021/11/06 07:04:16;;;;;;;18.55;7.72;;;;;;;31.75;20.86;95280.47;5035828;28;20056;-58
2021/11/06 07:06:46;;;;;;;14.60;7.60;;;;;;;31.78;21.08;95269.66;5048061;28;20045;-55
2021/11/06 07:09:14;;;;;;;16.98;7.13;;;;;;;32.15;20.90;95270.81;5055246;28;20036;-55
2021/11/06 07:11:41;;;;;;;14.20;7.97;;;;;;;32.82;20.08;95274.72;5050989;28;20060;-56
2021/11/06 07:14:08;;;;;;;12.95;8.27;;;;;;;33.22;19.61;95275.66;5054181;28;20048;-59
2021/11/06 07:16:35;;;;;;;14.95;7.30;;;;;;;33.36;19.40;95272.00;5053893;28;20060;-62
2021/11/06 07:19:03;;;;;;;17.25;8.70;;;;;;;33.25;19.41;95272.13;5051541;28;20068;-60
2021/11/06 07:21:30;;;;;;;15.15;7.97;;;;;;;33.56;19.23;95289.06;5054011;28;20052;-57
2021/11/06 07:23:57;;;;;;;12.80;7.82;;;;;;;33.97;18.96;95291.50;5054468;28;20056;-56
2021/11/06 07:26:24;;;;;;;13.15;8.20;;;;;;;34.19;18.59;95286.47;5054582;28;20451;-54
2021/11/06 07:28:51;;;;;;;23.48;7.93;;;;;;;33.85;18.91;95277.81;5052965;28;20049;-55
2021/11/06 07:31:19;;;;;;;14.68;8.63;;;;;;;34.31;18.28;95283.13;5053836;28;20037;-57
2021/11/06 07:33:48;;;;;;;15.85;8.70;;;;;;;34.45;18.22;95281.34;5054175;28;20049;-59
2021/11/06 07:36:16;;;;;;;14.65;7.93;;;;;;;34.78;18.06;95293.84;5052364;28;20467;-56
2021/11/06 07:38:43;;;;;;;14.10;8.02;;;;;;;35.11;17.72;95293.91;5053917;28;20055;-55
2021/11/06 07:41:11;;;;;;;12.32;8.30;;;;;;;34.88;17.95;95298.31;5053427;28;20371;-56
2021/11/06 07:43:40;;;;;;;13.80;8.60;;;;;;;34.95;18.03;95291.19;5054237;28;20050;-55
2021/11/06 07:46:10;;;;;;;13.05;8.68;;;;;;;35.08;17.75;95309.13;5053938;28;20052;-58
2021/11/06 07:48:37;;;;;;;13.70;9.05;;;;;;;34.89;18.19;95304.50;5051572;28;20052;-57
2021/11/06 07:51:04;;;;;;;14.68;9.43;;;;;;;34.30;18.78;95303.28;5053586;28;20041;-57
2021/11/06 07:53:31;;;;;;;14.52;9.75;;;;;;;34.26;18.71;95313.44;5054086;28;20045;-56
2021/11/06 07:55:59;;;;;;;17.95;10.23;;;;;;;34.03;19.24;95310.78;5054233;28;20052;-57
2021/11/06 07:58:26;;;;;;;15.05;9.65;;;;;;;34.00;18.90;95304.25;5053640;28;20057;-59
2021/11/06 08:00:54;;;;;;;16.85;9.95;;;;;;;34.16;19.05;95298.16;5052722;28;20056;-55
2021/11/06 08:03:22;;;;;;;12.85;10.20;;;;;;;33.52;19.79;95304.63;5052838;28;20045;-57
2021/11/06 08:05:49;;;;;;;12.93;9.93;;;;;;;33.72;19.34;95305.47;5053271;28;20049;-54
2021/11/06 08:08:16;;;;;;;14.23;10.30;;;;;;;33.88;19.71;95313.00;5053804;28;20053;-56
2021/11/06 08:10:43;;;;;;;12.00;9.88;;;;;;;34.11;19.40;95312.19;5054020;28;20455;-56
2021/11/06 08:13:12;;;;;;;12.50;9.30;;;;;;;33.92;19.36;95310.22;5054076;28;20056;-57
2021/11/06 08:15:39;;;;;;;12.98;8.65;;;;;;;34.02;19.42;95309.25;5053792;28;20363;-59
2021/11/06 08:18:06;;;;;;;12.15;8.82;;;;;;;34.00;19.62;95306.19;5054503;28;20048;-57
2021/11/06 08:20:33;;;;;;;10.98;9.00;;;;;;;34.07;19.56;95311.47;5053654;28;20419;-62
2021/11/06 08:23:02;;;;;;;13.40;10.70;;;;;;;34.12;19.03;95311.03;5053313;28;20119;-56
2021/11/06 08:25:29;;;;;;;14.20;10.13;;;;;;;34.17;19.40;95320.63;5052422;28;20453;-58
2021/11/06 08:27:57;;;;;;;13.80;9.63;;;;;;;34.48;18.93;95324.69;5053550;28;20041;-58
2021/11/06 08:30:25;;;;;;;13.90;10.45;;;;;;;34.50;19.16;95316.13;5054530;28;20047;-56
2021/11/06 08:32:55;;;;;;;14.80;12.50;;;;;;;34.46;19.16;95320.88;5053222;28;20041;-57
2021/11/06 08:35:25;;;;;;;21.38;19.15;;;;;;;34.26;19.45;95313.44;5053291;28;20065;-58
2021/11/06 08:37:53;;;;;;;16.48;12.80;;;;;;;34.22;19.51;95312.75;5052116;28;20040;-56
2021/11/06 08:40:20;;;;;;;13.13;10.38;;;;;;;34.55;19.39;95319.13;5053652;28;20049;-55
2021/11/06 08:42:48;;;;;;;12.73;9.57;;;;;;;34.89;19.12;95321.56;5053107;28;20049;-46
2021/11/06 08:45:15;;;;;;;9.40;8.23;;;;;;;35.20;18.65;95321.28;5048465;28;20057;-56
2021/11/06 08:47:43;;;;;;;10.80;8.07;;;;;;;35.18;18.89;95316.28;5051999;28;20352;-61
2021/11/06 08:50:14;;;;;;;9.38;7.40;;;;;;;35.21;18.92;95323.59;5052685;28;20041;-55
2021/11/06 08:52:41;;;;;;;8.38;6.65;;;;;;;35.47;18.88;95321.84;5052191;28;20051;-57
2021/11/06 08:55:09;;;;;;;7.75;6.32;;;;;;;35.46;19.12;95320.31;5037436;28;20056;-52
2021/11/06 08:57:38;;;;;;;8.02;6.05;;;;;;;35.58;18.66;95321.59;5043489;28;20052;-48
2021/11/06 09:00:11;;;;;;;8.38;6.20;;;;;;;35.79;18.33;95321.06;5052337;28;20364;-52
2021/11/06 09:02:39;;;;;;;8.18;6.40;;;;;;;35.64;18.53;95316.41;5046712;28;20053;-54
2021/11/06 09:05:09;;;;;;;8.45;5.72;;;;;;;35.79;18.13;95331.94;5053261;28;20059;-55
2021/11/06 09:07:36;;;;;;;8.38;6.28;;;;;;;35.34;18.65;95336.53;5042424;28;20367;-54
2021/11/06 09:10:15;;;;;;;7.53;5.93;;;;;;;35.95;18.21;95336.66;5053535;28;20045;-55
2021/11/06 09:12:42;;;;;;;7.50;6.10;;;;;;;35.67;18.29;95326.44;5052991;28;20044;-53
2021/11/06 09:15:10;;;;;;;9.57;6.13;;;;;;;35.41;18.79;95339.09;5053448;28;20040;-52
2021/11/06 09:17:37;;;;;;;8.80;6.30;;;;;;;35.13;19.53;95341.25;5053076;28;20049;-60
2021/11/06 09:20:06;;;;;;;9.07;6.00;;;;;;;34.97;19.44;95343.91;5057069;28;20565;-59
2021/11/06 09:22:34;;;;;;;12.40;6.28;;;;;;;35.14;19.19;95345.50;5047339;28;20390;-60
2021/11/06 09:25:02;;;;;;;8.65;5.72;;;;;;;34.93;19.45;95346.69;5057047;28;20056;-67
2021/11/06 09:27:30;;;;;;;8.48;5.88;;;;;;;35.22;19.06;95340.66;5056876;28;20049;-53
2021/11/06 09:29:57;;;;;;;9.35;5.50;;;;;;;35.37;19.13;95339.16;5057067;28;20044;-57
2021/11/06 09:32:25;;;;;;;7.93;5.45;;;;;;;35.97;18.22;95337.00;5056719;28;20045;-57
2021/11/06 09:34:52;;;;;;;13.27;11.75;;;;;;;36.31;17.67;95327.59;5041291;28;20045;-66
2021/11/06 09:37:19;;;;;;;60.92;55.65;;;;;;;35.39;18.71;95331.34;5054392;28;20048;-64
2021/11/06 09:39:46;;;;;;;286.15;255.10;;;;;;;34.73;19.29;95324.19;5056722;28;20053;-58
2021/11/06 09:42:13;;;;;;;34.10;30.50;;;;;;;35.23;18.89;95329.34;5053743;28;20045;-53
2021/11/06 09:44:42;;;;;;;18.95;16.13;;;;;;;35.61;18.85;95325.41;5056926;28;20044;-55
2021/11/06 09:47:12;;;;;;;15.77;12.80;;;;;;;35.96;18.33;95319.13;5046341;28;20352;-54
2021/11/06 09:49:41;;;;;;;11.90;8.30;;;;;;;35.62;18.41;95321.50;5056638;28;20045;-54
2021/11/06 09:52:09;;;;;;;24.23;15.05;;;;;;;35.11;19.16;95312.94;5055352;28;20048;-55
2021/11/06 09:54:41;;;;;;;16.80;13.75;;;;;;;35.17;19.23;95312.03;5056430;28;20458;-50
2021/11/06 09:57:08;;;;;;;22.38;19.75;;;;;;;35.16;19.24;95312.47;5056263;28;20056;-49
2021/11/06 09:59:35;;;;;;;21.98;17.45;;;;;;;34.85;19.47;95310.00;5055604;28;20053;-59
2021/11/06 10:02:04;;;;;;;20.40;15.50;;;;;;;35.32;19.49;95307.03;5054608;28;20139;-50
2021/11/06 10:04:31;;;;;;;46.30;35.22;;;;;;;35.33;19.12;95308.56;5055503;28;20364;-51
2021/11/06 10:07:14;;;;;;;16.75;13.88;;;;;;;34.96;19.28;95307.06;5056030;28;20052;-52
2021/11/06 10:09:42;;;;;;;13.07;8.98;;;;;;;34.95;19.36;95307.50;5055950;28;20037;-55
2021/11/06 10:12:09;;;;;;;13.68;8.35;;;;;;;34.71;19.70;95299.41;5052405;28;20048;-56
2021/11/06 10:14:36;;;;;;;8.32;7.22;;;;;;;34.61;19.46;95303.91;5036260;28;20338;-55
2021/11/06 10:17:04;;;;;;;14.00;8.63;;;;;;;34.82;19.39;95296.47;5036023;28;20064;-57
2021/11/06 10:19:45;;;;;;;18.48;15.48;;;;;;;34.64;19.67;95299.56;5055869;28;20056;-56
2021/11/06 10:22:16;;;;;;;14.75;10.45;;;;;;;34.67;19.61;95303.41;5055792;28;20060;-55
2021/11/06 10:24:47;;;;;;;10.43;8.40;;;;;;;34.86;19.22;95297.94;5055829;28;20068;-58
2021/11/06 10:27:25;;;;;;;10.38;7.57;;;;;;;34.67;19.28;95285.16;5055746;28;20048;-59
2021/11/06 10:30:35;;;;;;;8.82;7.05;;;;;;;35.00;18.97;95293.41;5055498;28;20044;-57
2021/11/06 10:33:05;;;;;;;9.82;6.70;;;;;;;34.91;18.80;95283.91;5054559;28;20052;-58
2021/11/06 10:35:38;;;;;;;10.02;6.78;;;;;;;35.00;18.97;95285.25;5055360;28;20068;-55
2021/11/06 10:38:15;;;;;;;9.75;6.28;;;;;;;35.03;18.94;95290.59;5055358;28;20057;-56
2021/11/06 10:40:52;;;;;;;11.10;6.72;;;;;;;34.82;19.68;95283.66;5055666;28;20045;-57
2021/11/06 10:43:23;;;;;;;6.90;5.40;;;;;;;34.85;19.44;95288.28;5055254;28;20052;-59
2021/11/06 10:45:56;;;;;;;6.55;5.20;;;;;;;35.05;18.98;95295.63;5055616;28;20041;-58
2021/11/06 10:48:28;;;;;;;8.98;5.90;;;;;;;34.93;19.45;95292.38;5054411;28;20049;-55
2021/11/06 10:51:03;;;;;;;7.40;5.80;;;;;;;34.97;19.16;95295.00;5056161;28;20045;-56
2021/11/06 10:53:54;;;;;;;8.38;5.72;;;;;;;34.87;19.13;95290.56;5055422;28;20053;-54
2021/11/06 10:56:23;;;;;;;8.97;6.03;;;;;;;34.87;19.42;95285.94;5054429;28;20052;-56
2021/11/06 10:58:52;;;;;;;8.68;5.60;;;;;;;35.13;18.88;95296.97;5054935;28;20773;-58
2021/11/06 11:01:23;;;;;;;10.10;6.20;;;;;;;35.16;19.39;95298.88;5054980;28;20045;-54
2021/11/06 11:03:56;;;;;;;7.90;6.47;;;;;;;35.08;19.99;95297.47;5054738;28;20048;-72
2021/11/06 11:06:28;;;;;;;10.38;6.90;;;;;;;35.31;19.48;95285.72;5055040;28;20078;-63
2021/11/06 11:08:57;;;;;;;8.95;7.18;;;;;;;35.29;19.64;95286.13;5048423;28;20056;-65
2021/11/06 11:11:27;;;;;;;7.57;6.75;;;;;;;35.45;19.12;95285.41;5055109;28;20045;-55
2021/11/06 11:13:57;;;;;;;7.73;6.53;;;;;;;35.60;19.31;95291.25;5048083;28;20049;-69
2021/11/06 11:16:25;;;;;;;28.17;25.73;;;;;;;35.73;19.25;95286.66;5035215;28;20045;-55
2021/11/06 11:18:54;;;;;;;15.25;11.07;;;;;;;35.89;18.62;95277.72;5046175;28;20055;-61
2021/11/06 11:21:26;;;;;;;11.80;8.00;;;;;;;35.38;19.03;95275.44;5054786;28;20367;-59
2021/11/06 11:24:01;;;;;;;8.73;7.32;;;;;;;35.33;18.89;95273.22;5054950;28;20052;-59
2021/11/06 11:26:36;;;;;;;8.43;6.97;;;;;;;35.41;19.04;95269.19;5054672;28;20056;-56
2021/11/06 11:29:05;;;;;;;11.85;6.25;;;;;;;34.81;19.64;95270.50;5054043;28;20060;-61